sensor_id;sensor_type;location;lat;lon;timestamp;P1;durP1;ratioP1;P2;durP2;ratioP2
54823;SDS011;40724;53.196;5.980;2023-12-22T00:00:09;18.80;;;6.43;;
54823;SDS011;40724;53.196;5.980;2023-12-22T00:02:35;28.92;;;5.90;;
54823;SDS011;40724;53.196;5.980;2023-12-22T00:05:01;19.85;;;5.53;;
54823;SDS011;40724;53.196;5.980;2023-12-22T00:07:27;16.00;;;5.38;;
54823;SDS011;40724;53.196;5.980;2023-12-22T00:09:54;17.75;;;5.10;;
54823;SDS011;40724;53.196;5.980;2023-12-22T00:12:20;19.75;;;6.35;;
54823;SDS011;40724;53.196;5.980;2023-12-22T00:14:46;21.70;;;6.38;;
54823;SDS011;40724;53.196;5.980;2023-12-22T00:17:12;9.88;;;4.55;;
54823;SDS011;40724;53.196;5.980;2023-12-22T00:19:38;14.60;;;4.50;;
54823;SDS011;40724;53.196;5.980;2023-12-22T00:22:04;14.68;;;5.00;;
54823;SDS011;40724;53.196;5.980;2023-12-22T00:24:30;13.68;;;5.00;;
54823;SDS011;40724;53.196;5.980;2023-12-22T00:26:56;17.65;;;6.15;;
54823;SDS011;40724;53.196;5.980;2023-12-22T00:29:22;16.90;;;5.88;;
54823;SDS011;40724;53.196;5.980;2023-12-22T00:31:48;25.58;;;6.40;;
54823;SDS011;40724;53.196;5.980;2023-12-22T00:34:15;12.68;;;4.88;;
54823;SDS011;40724;53.196;5.980;2023-12-22T00:36:41;15.90;;;6.55;;
54823;SDS011;40724;53.196;5.980;2023-12-22T00:39:07;18.13;;;6.43;;
54823;SDS011;40724;53.196;5.980;2023-12-22T00:41:33;19.48;;;4.90;;
54823;SDS011;40724;53.196;5.980;2023-12-22T00:43:59;15.57;;;5.43;;
54823;SDS011;40724;53.196;5.980;2023-12-22T00:46:25;19.65;;;5.28;;
54823;SDS011;40724;53.196;5.980;2023-12-22T00:48:52;19.30;;;6.07;;
54823;SDS011;40724;53.196;5.980;2023-12-22T00:51:18;17.52;;;5.50;;
54823;SDS011;40724;53.196;5.980;2023-12-22T00:53:44;18.38;;;5.25;;
54823;SDS011;40724;53.196;5.980;2023-12-22T00:56:10;20.67;;;6.38;;
54823;SDS011;40724;53.196;5.980;2023-12-22T00:58:38;18.17;;;5.95;;
54823;SDS011;40724;53.196;5.980;2023-12-22T01:01:05;16.38;;;5.75;;
54823;SDS011;40724;53.196;5.980;2023-12-22T01:03:31;11.88;;;4.28;;
54823;SDS011;40724;53.196;5.980;2023-12-22T01:05:57;10.02;;;4.40;;
54823;SDS011;40724;53.196;5.980;2023-12-22T01:08:23;12.65;;;4.38;;
54823;SDS011;40724;53.196;5.980;2023-12-22T01:10:49;9.02;;;4.57;;
54823;SDS011;40724;53.196;5.980;2023-12-22T01:13:15;17.10;;;4.80;;
54823;SDS011;40724;53.196;5.980;2023-12-22T01:15:41;9.90;;;3.85;;
54823;SDS011;40724;53.196;5.980;2023-12-22T01:18:09;15.27;;;5.13;;
54823;SDS011;40724;53.196;5.980;2023-12-22T01:20:35;17.27;;;4.75;;
54823;SDS011;40724;53.196;5.980;2023-12-22T01:23:01;13.38;;;4.47;;
54823;SDS011;40724;53.196;5.980;2023-12-22T01:25:27;11.88;;;4.15;;
54823;SDS011;40724;53.196;5.980;2023-12-22T01:27:53;14.05;;;4.75;;
54823;SDS011;40724;53.196;5.980;2023-12-22T01:30:19;16.40;;;4.57;;
54823;SDS011;40724;53.196;5.980;2023-12-22T01:32:45;16.40;;;4.43;;
54823;SDS011;40724;53.196;5.980;2023-12-22T01:35:12;14.18;;;5.43;;
54823;SDS011;40724;53.196;5.980;2023-12-22T01:37:38;21.17;;;5.40;;
54823;SDS011;40724;53.196;5.980;2023-12-22T01:40:04;13.48;;;3.97;;
54823;SDS011;40724;53.196;5.980;2023-12-22T01:42:30;12.75;;;4.90;;
54823;SDS011;40724;53.196;5.980;2023-12-22T01:44:57;20.25;;;4.70;;
54823;SDS011;40724;53.196;5.980;2023-12-22T01:47:23;22.02;;;5.93;;
54823;SDS011;40724;53.196;5.980;2023-12-22T01:49:49;12.02;;;4.47;;
54823;SDS011;40724;53.196;5.980;2023-12-22T01:52:16;22.33;;;6.30;;
54823;SDS011;40724;53.196;5.980;2023-12-22T01:54:42;15.15;;;4.88;;
54823;SDS011;40724;53.196;5.980;2023-12-22T01:57:09;15.60;;;5.20;;
54823;SDS011;40724;53.196;5.980;2023-12-22T01:59:35;17.40;;;4.93;;
54823;SDS011;40724;53.196;5.980;2023-12-22T02:02:02;17.63;;;5.25;;
54823;SDS011;40724;53.196;5.980;2023-12-22T02:04:29;18.75;;;4.68;;
54823;SDS011;40724;53.196;5.980;2023-12-22T02:07:00;19.55;;;6.47;;
54823;SDS011;40724;53.196;5.980;2023-12-22T02:09:27;11.88;;;4.28;;
54823;SDS011;40724;53.196;5.980;2023-12-22T02:11:53;10.70;;;4.40;;
54823;SDS011;40724;53.196;5.980;2023-12-22T02:14:19;14.77;;;4.05;;
54823;SDS011;40724;53.196;5.980;2023-12-22T02:16:46;13.85;;;4.65;;
54823;SDS011;40724;53.196;5.980;2023-12-22T02:24:45;10.90;;;3.60;;
54823;SDS011;40724;53.196;5.980;2023-12-22T02:29:57;17.40;;;4.88;;
54823;SDS011;40724;53.196;5.980;2023-12-22T02:32:30;20.45;;;4.72;;
54823;SDS011;40724;53.196;5.980;2023-12-22T02:34:56;13.65;;;3.25;;
54823;SDS011;40724;53.196;5.980;2023-12-22T02:37:23;9.43;;;3.13;;
54823;SDS011;40724;53.196;5.980;2023-12-22T02:39:53;9.77;;;3.10;;
54823;SDS011;40724;53.196;5.980;2023-12-22T02:42:20;13.63;;;2.90;;
54823;SDS011;40724;53.196;5.980;2023-12-22T02:44:51;11.98;;;3.83;;
54823;SDS011;40724;53.196;5.980;2023-12-22T02:47:17;11.55;;;4.18;;
54823;SDS011;40724;53.196;5.980;2023-12-22T02:49:43;13.23;;;4.18;;
54823;SDS011;40724;53.196;5.980;2023-12-22T02:52:09;12.93;;;2.83;;
54823;SDS011;40724;53.196;5.980;2023-12-22T02:54:35;10.50;;;4.22;;
54823;SDS011;40724;53.196;5.980;2023-12-22T02:57:05;10.32;;;3.33;;
54823;SDS011;40724;53.196;5.980;2023-12-22T02:59:31;8.10;;;3.28;;
54823;SDS011;40724;53.196;5.980;2023-12-22T03:01:57;12.25;;;3.88;;
54823;SDS011;40724;53.196;5.980;2023-12-22T03:04:23;11.68;;;4.15;;
54823;SDS011;40724;53.196;5.980;2023-12-22T03:06:49;16.00;;;4.47;;
54823;SDS011;40724;53.196;5.980;2023-12-22T03:09:16;9.70;;;3.70;;
54823;SDS011;40724;53.196;5.980;2023-12-22T03:11:42;10.07;;;4.30;;
54823;SDS011;40724;53.196;5.980;2023-12-22T03:14:09;12.63;;;4.35;;
54823;SDS011;40724;53.196;5.980;2023-12-22T03:16:35;9.85;;;3.75;;
54823;SDS011;40724;53.196;5.980;2023-12-22T03:19:01;11.98;;;3.88;;
54823;SDS011;40724;53.196;5.980;2023-12-22T03:21:27;11.57;;;5.07;;
54823;SDS011;40724;53.196;5.980;2023-12-22T03:23:54;13.60;;;3.70;;
54823;SDS011;40724;53.196;5.980;2023-12-22T03:26:20;12.75;;;4.10;;
54823;SDS011;40724;53.196;5.980;2023-12-22T03:28:46;12.10;;;3.70;;
54823;SDS011;40724;53.196;5.980;2023-12-22T03:31:12;12.23;;;4.32;;
54823;SDS011;40724;53.196;5.980;2023-12-22T03:33:38;8.82;;;3.38;;
54823;SDS011;40724;53.196;5.980;2023-12-22T03:36:04;19.63;;;5.15;;
54823;SDS011;40724;53.196;5.980;2023-12-22T03:38:30;17.38;;;5.03;;
54823;SDS011;40724;53.196;5.980;2023-12-22T03:40:56;11.07;;;4.45;;
54823;SDS011;40724;53.196;5.980;2023-12-22T03:43:22;19.13;;;4.10;;
54823;SDS011;40724;53.196;5.980;2023-12-22T03:45:49;18.63;;;5.30;;
54823;SDS011;40724;53.196;5.980;2023-12-22T03:48:15;19.63;;;6.03;;
54823;SDS011;40724;53.196;5.980;2023-12-22T03:50:41;12.75;;;4.55;;
54823;SDS011;40724;53.196;5.980;2023-12-22T03:53:07;24.02;;;5.30;;
54823;SDS011;40724;53.196;5.980;2023-12-22T03:55:33;10.30;;;5.20;;
54823;SDS011;40724;53.196;5.980;2023-12-22T03:57:59;13.77;;;3.47;;
54823;SDS011;40724;53.196;5.980;2023-12-22T04:00:26;11.02;;;4.30;;
54823;SDS011;40724;53.196;5.980;2023-12-22T04:02:52;16.85;;;5.78;;
54823;SDS011;40724;53.196;5.980;2023-12-22T04:05:18;15.30;;;4.35;;
54823;SDS011;40724;53.196;5.980;2023-12-22T04:07:44;12.80;;;4.30;;
54823;SDS011;40724;53.196;5.980;2023-12-22T04:10:10;14.70;;;5.00;;
54823;SDS011;40724;53.196;5.980;2023-12-22T04:12:36;16.88;;;4.75;;
54823;SDS011;40724;53.196;5.980;2023-12-22T04:15:02;14.02;;;4.68;;
54823;SDS011;40724;53.196;5.980;2023-12-22T04:17:29;14.82;;;4.88;;
54823;SDS011;40724;53.196;5.980;2023-12-22T04:19:55;13.95;;;5.97;;
54823;SDS011;40724;53.196;5.980;2023-12-22T04:22:21;16.02;;;5.80;;
54823;SDS011;40724;53.196;5.980;2023-12-22T04:24:48;13.95;;;4.75;;
54823;SDS011;40724;53.196;5.980;2023-12-22T04:27:14;14.82;;;5.72;;
54823;SDS011;40724;53.196;5.980;2023-12-22T04:29:40;12.13;;;4.05;;
54823;SDS011;40724;53.196;5.980;2023-12-22T04:32:06;15.85;;;4.95;;
54823;SDS011;40724;53.196;5.980;2023-12-22T04:34:33;11.55;;;4.93;;
54823;SDS011;40724;53.196;5.980;2023-12-22T04:36:59;17.30;;;4.28;;
54823;SDS011;40724;53.196;5.980;2023-12-22T04:39:25;11.30;;;4.57;;
54823;SDS011;40724;53.196;5.980;2023-12-22T04:41:51;14.07;;;4.57;;
54823;SDS011;40724;53.196;5.980;2023-12-22T04:44:17;13.20;;;4.90;;
54823;SDS011;40724;53.196;5.980;2023-12-22T04:46:43;18.08;;;4.80;;
54823;SDS011;40724;53.196;5.980;2023-12-22T04:49:09;17.50;;;4.55;;
54823;SDS011;40724;53.196;5.980;2023-12-22T04:51:36;15.20;;;4.63;;
54823;SDS011;40724;53.196;5.980;2023-12-22T04:54:02;18.80;;;4.82;;
54823;SDS011;40724;53.196;5.980;2023-12-22T04:56:28;15.00;;;4.68;;
54823;SDS011;40724;53.196;5.980;2023-12-22T04:58:54;12.80;;;4.55;;
54823;SDS011;40724;53.196;5.980;2023-12-22T05:01:20;18.30;;;6.05;;
54823;SDS011;40724;53.196;5.980;2023-12-22T05:03:46;19.30;;;5.20;;
54823;SDS011;40724;53.196;5.980;2023-12-22T05:06:12;8.15;;;3.60;;
54823;SDS011;40724;53.196;5.980;2023-12-22T05:08:38;15.00;;;4.97;;
54823;SDS011;40724;53.196;5.980;2023-12-22T05:11:05;14.10;;;6.10;;
54823;SDS011;40724;53.196;5.980;2023-12-22T05:13:31;17.10;;;4.78;;
54823;SDS011;40724;53.196;5.980;2023-12-22T05:15:57;15.48;;;4.70;;
54823;SDS011;40724;53.196;5.980;2023-12-22T05:18:23;17.58;;;5.05;;
54823;SDS011;40724;53.196;5.980;2023-12-22T05:20:49;12.40;;;4.88;;
54823;SDS011;40724;53.196;5.980;2023-12-22T05:23:17;15.95;;;5.05;;
54823;SDS011;40724;53.196;5.980;2023-12-22T05:25:43;10.70;;;4.53;;
54823;SDS011;40724;53.196;5.980;2023-12-22T05:28:09;9.63;;;4.95;;
54823;SDS011;40724;53.196;5.980;2023-12-22T05:30:35;16.05;;;4.15;;
54823;SDS011;40724;53.196;5.980;2023-12-22T05:33:01;15.48;;;5.22;;
54823;SDS011;40724;53.196;5.980;2023-12-22T05:35:27;14.55;;;4.05;;
54823;SDS011;40724;53.196;5.980;2023-12-22T05:37:53;12.63;;;4.45;;
54823;SDS011;40724;53.196;5.980;2023-12-22T05:40:20;9.02;;;4.00;;
54823;SDS011;40724;53.196;5.980;2023-12-22T05:42:46;15.93;;;4.32;;
54823;SDS011;40724;53.196;5.980;2023-12-22T05:45:12;13.07;;;3.70;;
54823;SDS011;40724;53.196;5.980;2023-12-22T05:47:39;15.70;;;5.05;;
54823;SDS011;40724;53.196;5.980;2023-12-22T05:50:05;14.15;;;4.70;;
54823;SDS011;40724;53.196;5.980;2023-12-22T05:52:31;14.85;;;5.57;;
54823;SDS011;40724;53.196;5.980;2023-12-22T05:54:57;13.95;;;4.72;;
54823;SDS011;40724;53.196;5.980;2023-12-22T05:57:26;16.13;;;4.40;;
54823;SDS011;40724;53.196;5.980;2023-12-22T05:59:53;10.88;;;4.28;;
54823;SDS011;40724;53.196;5.980;2023-12-22T06:02:19;9.43;;;4.18;;
54823;SDS011;40724;53.196;5.980;2023-12-22T06:04:45;22.95;;;5.35;;
54823;SDS011;40724;53.196;5.980;2023-12-22T06:07:11;13.93;;;4.20;;
54823;SDS011;40724;53.196;5.980;2023-12-22T06:09:37;8.50;;;3.65;;
54823;SDS011;40724;53.196;5.980;2023-12-22T06:12:04;9.75;;;3.72;;
54823;SDS011;40724;53.196;5.980;2023-12-22T06:14:32;12.43;;;4.95;;
54823;SDS011;40724;53.196;5.980;2023-12-22T06:17:00;21.02;;;4.60;;
54823;SDS011;40724;53.196;5.980;2023-12-22T06:19:26;13.30;;;4.05;;
54823;SDS011;40724;53.196;5.980;2023-12-22T06:21:55;12.57;;;3.88;;
54823;SDS011;40724;53.196;5.980;2023-12-22T06:24:22;18.17;;;4.22;;
54823;SDS011;40724;53.196;5.980;2023-12-22T06:26:49;13.45;;;4.20;;
54823;SDS011;40724;53.196;5.980;2023-12-22T06:29:15;10.15;;;3.50;;
54823;SDS011;40724;53.196;5.980;2023-12-22T06:31:41;10.98;;;3.92;;
54823;SDS011;40724;53.196;5.980;2023-12-22T06:34:07;9.20;;;3.67;;
54823;SDS011;40724;53.196;5.980;2023-12-22T06:36:33;14.00;;;3.45;;
54823;SDS011;40724;53.196;5.980;2023-12-22T06:38:59;10.10;;;3.88;;
54823;SDS011;40724;53.196;5.980;2023-12-22T06:43:52;19.83;;;4.07;;
54823;SDS011;40724;53.196;5.980;2023-12-22T06:46:18;8.98;;;3.90;;
54823;SDS011;40724;53.196;5.980;2023-12-22T06:48:45;9.90;;;3.90;;
54823;SDS011;40724;53.196;5.980;2023-12-22T06:53:44;24.00;;;5.88;;
54823;SDS011;40724;53.196;5.980;2023-12-22T06:56:16;10.05;;;3.60;;
54823;SDS011;40724;53.196;5.980;2023-12-22T07:01:11;10.27;;;3.28;;
54823;SDS011;40724;53.196;5.980;2023-12-22T07:03:37;12.00;;;3.72;;
54823;SDS011;40724;53.196;5.980;2023-12-22T07:06:03;11.85;;;4.22;;
54823;SDS011;40724;53.196;5.980;2023-12-22T07:08:30;11.65;;;3.40;;
54823;SDS011;40724;53.196;5.980;2023-12-22T07:10:56;16.45;;;4.53;;
54823;SDS011;40724;53.196;5.980;2023-12-22T07:13:22;10.52;;;3.28;;
54823;SDS011;40724;53.196;5.980;2023-12-22T07:15:48;16.95;;;5.95;;
54823;SDS011;40724;53.196;5.980;2023-12-22T07:18:14;10.05;;;3.35;;
54823;SDS011;40724;53.196;5.980;2023-12-22T07:20:40;8.88;;;3.00;;
54823;SDS011;40724;53.196;5.980;2023-12-22T07:23:06;8.48;;;3.53;;
54823;SDS011;40724;53.196;5.980;2023-12-22T07:25:36;7.28;;;3.13;;
54823;SDS011;40724;53.196;5.980;2023-12-22T07:28:04;11.13;;;4.13;;
54823;SDS011;40724;53.196;5.980;2023-12-22T07:30:30;10.70;;;3.80;;
54823;SDS011;40724;53.196;5.980;2023-12-22T07:32:56;11.95;;;3.63;;
54823;SDS011;40724;53.196;5.980;2023-12-22T07:35:22;15.32;;;5.10;;
54823;SDS011;40724;53.196;5.980;2023-12-22T07:37:48;13.00;;;3.80;;
54823;SDS011;40724;53.196;5.980;2023-12-22T07:40:14;12.13;;;3.92;;
54823;SDS011;40724;53.196;5.980;2023-12-22T07:42:41;12.38;;;3.47;;
54823;SDS011;40724;53.196;5.980;2023-12-22T07:45:07;8.23;;;2.78;;
54823;SDS011;40724;53.196;5.980;2023-12-22T07:47:34;12.20;;;3.35;;
54823;SDS011;40724;53.196;5.980;2023-12-22T07:50:01;18.35;;;4.68;;
54823;SDS011;40724;53.196;5.980;2023-12-22T07:52:27;9.40;;;3.47;;
54823;SDS011;40724;53.196;5.980;2023-12-22T07:54:53;10.23;;;3.72;;
54823;SDS011;40724;53.196;5.980;2023-12-22T07:57:20;12.77;;;3.25;;
54823;SDS011;40724;53.196;5.980;2023-12-22T07:59:46;14.02;;;4.45;;
54823;SDS011;40724;53.196;5.980;2023-12-22T08:02:12;11.65;;;3.85;;
54823;SDS011;40724;53.196;5.980;2023-12-22T08:04:38;10.00;;;3.83;;
54823;SDS011;40724;53.196;5.980;2023-12-22T08:07:04;13.30;;;3.33;;
54823;SDS011;40724;53.196;5.980;2023-12-22T08:09:30;6.72;;;2.70;;
54823;SDS011;40724;53.196;5.980;2023-12-22T08:11:58;12.48;;;4.07;;
54823;SDS011;40724;53.196;5.980;2023-12-22T08:14:24;7.32;;;2.75;;
54823;SDS011;40724;53.196;5.980;2023-12-22T08:16:50;8.68;;;2.40;;
54823;SDS011;40724;53.196;5.980;2023-12-22T08:19:17;5.90;;;2.58;;
54823;SDS011;40724;53.196;5.980;2023-12-22T08:21:43;5.20;;;2.85;;
54823;SDS011;40724;53.196;5.980;2023-12-22T08:24:09;9.88;;;3.13;;
54823;SDS011;40724;53.196;5.980;2023-12-22T08:26:36;11.00;;;3.35;;
54823;SDS011;40724;53.196;5.980;2023-12-22T08:29:02;10.07;;;2.78;;
54823;SDS011;40724;53.196;5.980;2023-12-22T08:31:28;7.18;;;2.55;;
54823;SDS011;40724;53.196;5.980;2023-12-22T08:33:54;5.70;;;2.40;;
54823;SDS011;40724;53.196;5.980;2023-12-22T08:36:20;6.90;;;2.60;;
54823;SDS011;40724;53.196;5.980;2023-12-22T08:38:47;9.68;;;2.67;;
54823;SDS011;40724;53.196;5.980;2023-12-22T08:41:13;9.13;;;2.47;;
54823;SDS011;40724;53.196;5.980;2023-12-22T08:43:39;10.07;;;3.00;;
54823;SDS011;40724;53.196;5.980;2023-12-22T08:46:05;8.43;;;2.58;;
54823;SDS011;40724;53.196;5.980;2023-12-22T08:48:32;7.82;;;2.60;;
54823;SDS011;40724;53.196;5.980;2023-12-22T08:50:58;7.15;;;2.67;;
54823;SDS011;40724;53.196;5.980;2023-12-22T08:53:24;6.93;;;2.20;;
54823;SDS011;40724;53.196;5.980;2023-12-22T08:55:50;5.25;;;2.13;;
54823;SDS011;40724;53.196;5.980;2023-12-22T08:58:17;10.73;;;2.75;;
54823;SDS011;40724;53.196;5.980;2023-12-22T09:00:43;10.35;;;2.70;;
54823;SDS011;40724;53.196;5.980;2023-12-22T09:03:09;6.55;;;2.55;;
54823;SDS011;40724;53.196;5.980;2023-12-22T09:05:35;7.60;;;2.83;;
54823;SDS011;40724;53.196;5.980;2023-12-22T09:08:01;4.55;;;1.88;;
54823;SDS011;40724;53.196;5.980;2023-12-22T09:10:27;12.82;;;2.70;;
54823;SDS011;40724;53.196;5.980;2023-12-22T09:12:54;7.65;;;2.22;;
54823;SDS011;40724;53.196;5.980;2023-12-22T09:15:20;5.05;;;2.63;;
54823;SDS011;40724;53.196;5.980;2023-12-22T09:17:46;5.85;;;2.10;;
54823;SDS011;40724;53.196;5.980;2023-12-22T09:20:12;8.05;;;2.40;;
54823;SDS011;40724;53.196;5.980;2023-12-22T09:22:38;10.88;;;2.95;;
54823;SDS011;40724;53.196;5.980;2023-12-22T09:25:04;7.63;;;2.58;;
54823;SDS011;40724;53.196;5.980;2023-12-22T09:27:30;7.35;;;3.03;;
54823;SDS011;40724;53.196;5.980;2023-12-22T09:29:57;6.97;;;2.55;;
54823;SDS011;40724;53.196;5.980;2023-12-22T09:32:23;9.18;;;2.28;;
54823;SDS011;40724;53.196;5.980;2023-12-22T09:34:49;4.80;;;2.03;;
54823;SDS011;40724;53.196;5.980;2023-12-22T09:37:15;6.35;;;2.60;;
54823;SDS011;40724;53.196;5.980;2023-12-22T09:39:41;11.77;;;2.65;;
54823;SDS011;40724;53.196;5.980;2023-12-22T09:42:07;7.85;;;3.10;;
54823;SDS011;40724;53.196;5.980;2023-12-22T09:44:34;12.13;;;3.28;;
54823;SDS011;40724;53.196;5.980;2023-12-22T09:47:03;7.00;;;2.38;;
54823;SDS011;40724;53.196;5.980;2023-12-22T09:49:29;7.28;;;3.20;;
54823;SDS011;40724;53.196;5.980;2023-12-22T09:51:56;7.70;;;2.50;;
54823;SDS011;40724;53.196;5.980;2023-12-22T09:54:22;11.80;;;2.80;;
54823;SDS011;40724;53.196;5.980;2023-12-22T09:56:51;12.82;;;2.85;;
54823;SDS011;40724;53.196;5.980;2023-12-22T09:59:18;13.02;;;3.20;;
54823;SDS011;40724;53.196;5.980;2023-12-22T10:01:45;9.75;;;2.65;;
54823;SDS011;40724;53.196;5.980;2023-12-22T10:04:12;7.72;;;2.10;;
54823;SDS011;40724;53.196;5.980;2023-12-22T10:06:38;5.28;;;2.15;;
54823;SDS011;40724;53.196;5.980;2023-12-22T10:09:07;9.95;;;2.40;;
54823;SDS011;40724;53.196;5.980;2023-12-22T10:11:35;8.95;;;2.38;;
54823;SDS011;40724;53.196;5.980;2023-12-22T10:14:02;5.63;;;2.80;;
54823;SDS011;40724;53.196;5.980;2023-12-22T10:16:31;6.85;;;2.60;;
54823;SDS011;40724;53.196;5.980;2023-12-22T10:18:58;5.43;;;2.13;;
54823;SDS011;40724;53.196;5.980;2023-12-22T10:21:24;8.05;;;1.90;;
54823;SDS011;40724;53.196;5.980;2023-12-22T10:23:51;13.18;;;3.60;;
54823;SDS011;40724;53.196;5.980;2023-12-22T10:26:17;6.93;;;2.50;;
54823;SDS011;40724;53.196;5.980;2023-12-22T10:28:43;8.90;;;2.90;;
54823;SDS011;40724;53.196;5.980;2023-12-22T10:31:09;18.08;;;3.10;;
54823;SDS011;40724;53.196;5.980;2023-12-22T10:33:36;10.38;;;3.33;;
54823;SDS011;40724;53.196;5.980;2023-12-22T10:36:03;8.52;;;2.70;;
54823;SDS011;40724;53.196;5.980;2023-12-22T10:38:32;5.18;;;2.15;;
54823;SDS011;40724;53.196;5.980;2023-12-22T10:41:02;10.77;;;2.70;;
54823;SDS011;40724;53.196;5.980;2023-12-22T10:43:29;7.25;;;2.83;;
54823;SDS011;40724;53.196;5.980;2023-12-22T10:45:55;5.20;;;2.00;;
54823;SDS011;40724;53.196;5.980;2023-12-22T10:48:22;9.05;;;2.50;;
54823;SDS011;40724;53.196;5.980;2023-12-22T10:50:49;3.95;;;2.30;;
54823;SDS011;40724;53.196;5.980;2023-12-22T10:53:16;5.20;;;2.47;;
54823;SDS011;40724;53.196;5.980;2023-12-22T10:55:42;4.70;;;2.17;;
54823;SDS011;40724;53.196;5.980;2023-12-22T10:58:09;9.40;;;2.33;;
54823;SDS011;40724;53.196;5.980;2023-12-22T11:00:37;4.85;;;2.30;;
54823;SDS011;40724;53.196;5.980;2023-12-22T11:03:04;6.47;;;2.28;;
54823;SDS011;40724;53.196;5.980;2023-12-22T11:05:33;6.05;;;2.40;;
54823;SDS011;40724;53.196;5.980;2023-12-22T11:08:00;7.60;;;2.47;;
54823;SDS011;40724;53.196;5.980;2023-12-22T11:10:30;11.13;;;1.95;;
54823;SDS011;40724;53.196;5.980;2023-12-22T11:12:57;9.27;;;2.03;;
54823;SDS011;40724;53.196;5.980;2023-12-22T11:15:24;6.88;;;1.90;;
54823;SDS011;40724;53.196;5.980;2023-12-22T11:17:52;4.20;;;1.67;;
54823;SDS011;40724;53.196;5.980;2023-12-22T11:20:18;5.22;;;2.13;;
54823;SDS011;40724;53.196;5.980;2023-12-22T11:22:44;5.20;;;1.88;;
54823;SDS011;40724;53.196;5.980;2023-12-22T11:25:11;3.95;;;1.90;;
54823;SDS011;40724;53.196;5.980;2023-12-22T11:27:37;7.63;;;2.60;;
54823;SDS011;40724;53.196;5.980;2023-12-22T11:30:04;6.78;;;2.15;;
54823;SDS011;40724;53.196;5.980;2023-12-22T11:32:33;8.48;;;1.90;;
54823;SDS011;40724;53.196;5.980;2023-12-22T11:35:00;7.20;;;2.25;;
54823;SDS011;40724;53.196;5.980;2023-12-22T11:37:27;6.22;;;1.88;;
54823;SDS011;40724;53.196;5.980;2023-12-22T11:39:55;6.97;;;2.30;;
54823;SDS011;40724;53.196;5.980;2023-12-22T11:42:22;7.03;;;2.50;;
54823;SDS011;40724;53.196;5.980;2023-12-22T11:44:49;6.47;;;2.08;;
54823;SDS011;40724;53.196;5.980;2023-12-22T11:47:15;7.38;;;2.13;;
54823;SDS011;40724;53.196;5.980;2023-12-22T11:49:41;5.97;;;2.25;;
54823;SDS011;40724;53.196;5.980;2023-12-22T11:52:18;5.78;;;1.73;;
54823;SDS011;40724;53.196;5.980;2023-12-22T11:59:54;3.58;;;1.60;;
54823;SDS011;40724;53.196;5.980;2023-12-22T12:02:20;8.32;;;3.35;;
54823;SDS011;40724;53.196;5.980;2023-12-22T12:04:50;7.40;;;2.72;;
54823;SDS011;40724;53.196;5.980;2023-12-22T12:10:04;7.50;;;2.10;;
54823;SDS011;40724;53.196;5.980;2023-12-22T12:12:30;7.13;;;1.95;;
54823;SDS011;40724;53.196;5.980;2023-12-22T12:15:01;7.20;;;2.85;;
54823;SDS011;40724;53.196;5.980;2023-12-22T12:17:29;7.40;;;2.28;;
54823;SDS011;40724;53.196;5.980;2023-12-22T12:19:55;7.15;;;2.33;;
54823;SDS011;40724;53.196;5.980;2023-12-22T12:22:21;8.35;;;3.05;;
54823;SDS011;40724;53.196;5.980;2023-12-22T12:24:53;10.00;;;2.28;;
54823;SDS011;40724;53.196;5.980;2023-12-22T12:27:19;5.88;;;2.47;;
54823;SDS011;40724;53.196;5.980;2023-12-22T12:29:46;10.52;;;2.60;;
54823;SDS011;40724;53.196;5.980;2023-12-22T12:32:19;8.68;;;3.03;;
54823;SDS011;40724;53.196;5.980;2023-12-22T12:34:49;5.63;;;2.25;;
54823;SDS011;40724;53.196;5.980;2023-12-22T12:37:18;10.88;;;3.22;;
54823;SDS011;40724;53.196;5.980;2023-12-22T12:39:45;11.73;;;2.47;;
54823;SDS011;40724;53.196;5.980;2023-12-22T12:42:12;6.10;;;2.20;;
54823;SDS011;40724;53.196;5.980;2023-12-22T12:44:41;9.65;;;2.63;;
54823;SDS011;40724;53.196;5.980;2023-12-22T12:47:12;9.48;;;2.22;;
54823;SDS011;40724;53.196;5.980;2023-12-22T12:49:38;4.07;;;1.92;;
54823;SDS011;40724;53.196;5.980;2023-12-22T12:52:04;7.13;;;2.65;;
54823;SDS011;40724;53.196;5.980;2023-12-22T12:54:31;6.00;;;2.10;;
54823;SDS011;40724;53.196;5.980;2023-12-22T12:56:57;3.80;;;1.98;;
54823;SDS011;40724;53.196;5.980;2023-12-22T12:59:23;5.78;;;2.20;;
54823;SDS011;40724;53.196;5.980;2023-12-22T13:01:50;8.20;;;3.60;;
54823;SDS011;40724;53.196;5.980;2023-12-22T13:04:17;7.90;;;2.08;;
54823;SDS011;40724;53.196;5.980;2023-12-22T13:09:09;6.47;;;2.42;;
54823;SDS011;40724;53.196;5.980;2023-12-22T13:11:36;4.38;;;1.55;;
54823;SDS011;40724;53.196;5.980;2023-12-22T13:14:02;6.30;;;3.33;;
54823;SDS011;40724;53.196;5.980;2023-12-22T13:16:30;5.63;;;2.00;;
54823;SDS011;40724;53.196;5.980;2023-12-22T13:18:56;7.88;;;2.53;;
54823;SDS011;40724;53.196;5.980;2023-12-22T13:21:23;10.93;;;2.10;;
54823;SDS011;40724;53.196;5.980;2023-12-22T13:24:08;9.45;;;1.98;;
54823;SDS011;40724;53.196;5.980;2023-12-22T13:26:35;6.80;;;2.20;;
54823;SDS011;40724;53.196;5.980;2023-12-22T13:29:02;7.45;;;2.10;;
54823;SDS011;40724;53.196;5.980;2023-12-22T13:31:28;7.03;;;1.88;;
54823;SDS011;40724;53.196;5.980;2023-12-22T13:33:56;10.30;;;2.30;;
54823;SDS011;40724;53.196;5.980;2023-12-22T13:36:22;7.28;;;3.25;;
54823;SDS011;40724;53.196;5.980;2023-12-22T13:38:48;6.53;;;1.77;;
54823;SDS011;40724;53.196;5.980;2023-12-22T13:41:15;6.90;;;2.60;;
54823;SDS011;40724;53.196;5.980;2023-12-22T13:43:41;5.18;;;2.67;;
54823;SDS011;40724;53.196;5.980;2023-12-22T13:46:10;4.90;;;1.63;;
54823;SDS011;40724;53.196;5.980;2023-12-22T13:48:36;5.90;;;1.73;;
54823;SDS011;40724;53.196;5.980;2023-12-22T13:51:02;5.05;;;1.58;;
54823;SDS011;40724;53.196;5.980;2023-12-22T13:53:29;8.93;;;1.65;;
54823;SDS011;40724;53.196;5.980;2023-12-22T13:55:55;4.00;;;1.75;;
54823;SDS011;40724;53.196;5.980;2023-12-22T13:58:21;5.40;;;1.65;;
54823;SDS011;40724;53.196;5.980;2023-12-22T14:00:48;6.13;;;1.58;;
54823;SDS011;40724;53.196;5.980;2023-12-22T14:03:14;2.97;;;1.80;;
54823;SDS011;40724;53.196;5.980;2023-12-22T14:05:42;5.82;;;1.83;;
54823;SDS011;40724;53.196;5.980;2023-12-22T14:08:08;2.72;;;1.48;;
54823;SDS011;40724;53.196;5.980;2023-12-22T14:10:34;5.65;;;1.83;;
54823;SDS011;40724;53.196;5.980;2023-12-22T14:13:00;4.18;;;1.42;;
54823;SDS011;40724;53.196;5.980;2023-12-22T14:15:27;4.13;;;1.35;;
54823;SDS011;40724;53.196;5.980;2023-12-22T14:17:56;3.17;;;1.27;;
54823;SDS011;40724;53.196;5.980;2023-12-22T14:20:22;5.45;;;1.45;;
54823;SDS011;40724;53.196;5.980;2023-12-22T14:22:50;6.80;;;1.67;;
54823;SDS011;40724;53.196;5.980;2023-12-22T14:25:16;4.68;;;1.60;;
54823;SDS011;40724;53.196;5.980;2023-12-22T14:27:42;6.65;;;1.50;;
54823;SDS011;40724;53.196;5.980;2023-12-22T14:30:08;4.60;;;1.70;;
54823;SDS011;40724;53.196;5.980;2023-12-22T14:32:34;5.72;;;2.40;;
54823;SDS011;40724;53.196;5.980;2023-12-22T14:35:01;4.53;;;1.50;;
54823;SDS011;40724;53.196;5.980;2023-12-22T14:37:27;5.68;;;1.77;;
54823;SDS011;40724;53.196;5.980;2023-12-22T14:39:53;10.52;;;1.83;;
54823;SDS011;40724;53.196;5.980;2023-12-22T14:42:19;5.85;;;1.73;;
54823;SDS011;40724;53.196;5.980;2023-12-22T14:44:46;6.53;;;1.95;;
54823;SDS011;40724;53.196;5.980;2023-12-22T14:47:12;5.22;;;2.13;;
54823;SDS011;40724;53.196;5.980;2023-12-22T14:49:39;4.88;;;1.58;;
54823;SDS011;40724;53.196;5.980;2023-12-22T14:52:05;4.35;;;1.60;;
54823;SDS011;40724;53.196;5.980;2023-12-22T14:54:31;6.72;;;1.70;;
54823;SDS011;40724;53.196;5.980;2023-12-22T14:56:57;4.07;;;1.88;;
54823;SDS011;40724;53.196;5.980;2023-12-22T14:59:23;5.40;;;1.83;;
54823;SDS011;40724;53.196;5.980;2023-12-22T15:01:50;3.53;;;1.48;;